createdAt,value
2017-11-28T00:00:06.788Z,31.5
2017-11-28T00:02:07.587Z,31.5
2017-11-28T00:04:05.329Z,31.6
2017-11-28T00:06:05.102Z,31.5
2017-11-28T00:08:08.344Z,31.8
2017-11-28T00:10:07.643Z,31.6
2017-11-28T00:12:05.458Z,31.6
2017-11-28T00:14:10.257Z,31.5
2017-11-28T00:16:05.132Z,31.5
2017-11-28T00:18:07.593Z,31.6
2017-11-28T00:20:05.408Z,31.6
2017-11-28T00:22:05.201Z,31.5
2017-11-28T00:24:05.999Z,31.5
2017-11-28T00:26:05.750Z,31.7
2017-11-28T00:28:05.543Z,31.6
2017-11-28T00:30:07.789Z,31.7
2017-11-28T00:32:05.509Z,31.7
2017-11-28T00:34:07.869Z,31.6
2017-11-28T00:36:05.636Z,31.6
2017-11-28T00:38:05.397Z,31.7
2017-11-28T00:40:07.683Z,31.7
2017-11-28T00:42:05.933Z,31.7
2017-11-28T00:44:05.707Z,31.7
2017-11-28T00:46:08.160Z,31.7
2017-11-28T00:48:08.507Z,31.5
2017-11-28T00:50:05.205Z,31.7
2017-11-28T00:52:07.802Z,31.6
2017-11-28T00:54:05.506Z,31.8
2017-11-28T00:56:10.357Z,31.6
2017-11-28T00:58:05.123Z,31.6
2017-11-28T01:00:13.450Z,31.6
2017-11-28T01:02:06.165Z,31.6
2017-11-28T01:04:05.892Z,31.6
2017-11-28T01:06:05.925Z,31.6
2017-11-28T01:08:05.676Z,31.6
2017-11-28T01:10:05.440Z,31.6
2017-11-28T01:12:07.741Z,31.6
2017-11-28T01:14:05.432Z,31.7
2017-11-28T01:16:10.236Z,31.6
2017-11-28T01:18:05.303Z,31.6
2017-11-28T01:20:07.954Z,31.6
2017-11-28T01:22:05.705Z,31.6
2017-11-28T01:24:05.502Z,31.6
2017-11-28T01:26:05.320Z,31.6
2017-11-28T01:28:07.720Z,31.6
2017-11-28T01:30:06.005Z,31.6
2017-11-28T01:32:05.759Z,31.7
2017-11-28T01:34:05.512Z,31.6
2017-11-28T01:36:05.308Z,31.6
2017-11-28T01:38:05.629Z,31.7
2017-11-28T01:40:05.390Z,31.7
2017-11-28T01:42:05.745Z,31.6
2017-11-28T01:44:05.987Z,31.5
2017-11-28T01:46:05.736Z,31.7
2017-11-28T01:48:06.014Z,31.5
2017-11-28T01:50:08.349Z,31.5
2017-11-28T01:52:05.165Z,31.5
2017-11-28T01:54:05.898Z,31.4
2017-11-28T01:56:05.146Z,31.3
2017-11-28T01:58:05.890Z,31.4
2017-11-28T02:00:08.184Z,31.5
2017-11-28T02:02:11.061Z,31.5
2017-11-28T02:04:05.783Z,31.5
2017-11-28T02:06:05.514Z,31.4
2017-11-28T02:08:07.815Z,31.5
2017-11-28T02:10:05.615Z,31.5
2017-11-28T02:12:05.405Z,31.5
2017-11-28T02:14:05.155Z,31.6
2017-11-28T02:16:05.944Z,31.6
2017-11-28T02:18:05.981Z,31.6
2017-11-28T02:20:08.294Z,31.7
2017-11-28T02:22:06.048Z,31.6
2017-11-28T02:24:05.773Z,31.6
2017-11-28T02:26:08.074Z,31.7
2017-11-28T02:28:05.801Z,31.7
2017-11-28T02:30:05.097Z,31.4
2017-11-28T02:32:05.834Z,31.6
2017-11-28T02:34:05.073Z,31.6
2017-11-28T02:36:08.368Z,31.3
2017-11-28T02:38:05.169Z,31.3
2017-11-28T02:40:05.903Z,31.4
2017-11-28T02:42:08.211Z,31.4
2017-11-28T02:44:05.927Z,31.4
2017-11-28T02:46:05.690Z,31.5
2017-11-28T02:48:05.436Z,31.6
2017-11-28T02:50:05.245Z,31.5
2017-11-28T02:52:15.674Z,31.6
2017-11-28T02:54:08.076Z,31.5
2017-11-28T02:56:05.837Z,31.2
2017-11-28T02:58:05.650Z,31.6
2017-11-28T03:00:05.538Z,31.5
2017-11-28T03:02:07.865Z,31.5
2017-11-28T03:04:05.654Z,31.5
2017-11-28T03:06:07.933Z,31.5
2017-11-28T03:08:05.618Z,31.3
2017-11-28T03:10:05.364Z,31.5
2017-11-28T03:12:08.189Z,31.4
2017-11-28T03:14:05.909Z,31.6
2017-11-28T03:16:05.673Z,31.4
2017-11-28T03:18:05.619Z,31.4
2017-11-28T03:20:05.858Z,31.5
2017-11-28T03:22:05.239Z,31.5
2017-11-28T03:24:05.994Z,31.3
2017-11-28T03:26:05.753Z,31.5
2017-11-28T03:28:07.582Z,31.4
2017-11-28T03:30:05.332Z,31.4
2017-11-28T03:32:05.691Z,31.4
2017-11-28T03:34:05.468Z,31.4
2017-11-28T03:36:05.254Z,31.4
2017-11-28T03:38:06.023Z,31.4
2017-11-28T03:40:05.839Z,31.4
2017-11-28T03:42:05.638Z,31.5
2017-11-28T03:44:05.458Z,31.5
2017-11-28T03:46:10.254Z,31.3
2017-11-28T03:48:05.010Z,31.3
2017-11-28T03:50:05.721Z,31.3
2017-11-28T03:52:10.572Z,31.3
2017-11-28T03:54:08.453Z,31.3
2017-11-28T03:56:05.149Z,31.3
2017-11-28T03:58:05.929Z,31.3
2017-11-28T04:00:05.704Z,31.3
2017-11-28T04:02:05.453Z,31.3
2017-11-28T04:04:10.244Z,31.3
2017-11-28T04:06:10.986Z,31.3
2017-11-28T04:08:05.206Z,31.3
2017-11-28T04:10:08.064Z,31.4
2017-11-28T04:12:05.360Z,31.4
2017-11-28T04:14:07.599Z,31.3
2017-11-28T04:16:05.422Z,31.3
2017-11-28T04:18:05.350Z,31.2
2017-11-28T04:20:12.692Z,31.3
2017-11-28T04:22:05.520Z,31.1
2017-11-28T04:24:05.221Z,31.3
2017-11-28T04:26:05.985Z,31.3
2017-11-28T04:28:05.312Z,31.3
2017-11-28T04:30:05.108Z,31.3
2017-11-28T04:32:05.918Z,31.3
2017-11-28T04:34:05.708Z,31.3
2017-11-28T04:36:05.505Z,31.4
2017-11-28T04:38:05.247Z,31.1
2017-11-28T04:40:05.505Z,31.1
2017-11-28T04:42:08.284Z,31.1
2017-11-28T04:44:06.028Z,31.1
2017-11-28T04:46:05.802Z,31.2
2017-11-28T04:48:05.568Z,31.1
2017-11-28T04:50:05.340Z,31.1
2017-11-28T04:52:07.650Z,31
2017-11-28T04:54:05.458Z,31
2017-11-28T04:56:05.237Z,31
2017-11-28T04:58:11.102Z,30.9
2017-11-28T05:00:06.067Z,30.9
2017-11-28T05:02:05.823Z,31.3
2017-11-28T05:04:05.129Z,31
2017-11-28T05:06:05.963Z,31
2017-11-28T05:08:05.703Z,30.9
2017-11-28T05:10:06.030Z,30.9
2017-11-28T05:12:05.752Z,31
2017-11-28T05:14:05.491Z,30.8
2017-11-28T05:16:07.824Z,30.9
2017-11-28T05:18:05.295Z,31
2017-11-28T05:20:05.528Z,30.9
2017-11-28T05:22:05.335Z,30.8
2017-11-28T05:24:05.285Z,30.8
2017-11-28T05:26:08.513Z,30.9
2017-11-28T05:28:07.822Z,30.8
2017-11-28T05:30:05.589Z,30.8
2017-11-28T05:32:10.391Z,30.6
2017-11-28T05:34:05.197Z,30.8
2017-11-28T05:36:05.442Z,30.8
2017-11-28T05:38:05.169Z,30.9
2017-11-28T05:40:05.940Z,30.6
2017-11-28T05:42:05.625Z,30.6
2017-11-28T05:44:08.821Z,30.7
2017-11-28T05:46:07.765Z,30.9
2017-11-28T05:48:05.981Z,30.6
2017-11-28T05:50:05.267Z,30.7
2017-11-28T05:52:05.995Z,30.9
2017-11-28T05:54:05.685Z,30.8
2017-11-28T05:56:10.469Z,30.6
2017-11-28T05:58:05.200Z,30.6
2017-11-28T06:00:11.212Z,30.9
2017-11-28T06:02:05.969Z,31.1
2017-11-28T06:04:05.853Z,31
2017-11-28T06:06:05.577Z,31
2017-11-28T06:08:05.293Z,31.1
2017-11-28T06:10:05.040Z,31.2
2017-11-28T06:12:05.748Z,31.1
2017-11-28T06:14:10.524Z,31.1
2017-11-28T06:16:05.283Z,31
2017-11-28T06:18:07.751Z,30.8
2017-11-28T06:20:07.989Z,30.8
2017-11-28T06:22:05.805Z,30.8
2017-11-28T06:24:05.525Z,30.8
2017-11-28T06:26:05.261Z,30.8
2017-11-28T06:28:06.019Z,31
2017-11-28T06:30:08.248Z,30.7
2017-11-28T06:32:05.951Z,30.7
2017-11-28T06:34:10.770Z,30.8
2017-11-28T06:36:10.535Z,30.8
2017-11-28T06:38:05.263Z,30.8
2017-11-28T06:40:06.070Z,30.9
2017-11-28T06:42:05.795Z,30.7
2017-11-28T06:44:05.528Z,30.6
2017-11-28T06:46:05.295Z,30.9
2017-11-28T06:48:08.088Z,30.8
2017-11-28T06:50:05.866Z,30.8
2017-11-28T06:52:15.788Z,30.9
2017-11-28T06:54:08.036Z,30.9
2017-11-28T06:56:05.768Z,30.9
2017-11-28T06:58:05.525Z,30.9
2017-11-28T07:00:07.788Z,30.9
2017-11-28T07:02:05.546Z,30.9
2017-11-28T07:04:05.350Z,30.8
2017-11-28T07:06:15.317Z,30.7
2017-11-28T07:08:05.080Z,31
2017-11-28T07:10:05.817Z,30.9
2017-11-28T07:12:08.042Z,30.9
2017-11-28T07:14:10.819Z,31
2017-11-28T07:16:05.668Z,31
2017-11-28T07:18:05.579Z,31
2017-11-28T07:20:05.267Z,31
2017-11-28T07:22:05.997Z,31
2017-11-28T07:24:05.716Z,31
2017-11-28T07:26:05.521Z,31
2017-11-28T07:28:07.853Z,30.9
2017-11-28T07:30:05.617Z,30.9
2017-11-28T07:32:05.985Z,31.1
2017-11-28T07:34:05.165Z,31.1
2017-11-28T07:36:08.391Z,31.1
2017-11-28T07:38:05.351Z,30.9
2017-11-28T07:40:05.185Z,31.2
2017-11-28T07:42:05.883Z,31
2017-11-28T07:44:05.650Z,31
2017-11-28T07:46:05.418Z,31
2017-11-28T07:48:05.140Z,31
2017-11-28T07:50:05.392Z,31
2017-11-28T07:52:05.624Z,31
2017-11-28T07:54:08.130Z,31.1
2017-11-28T07:56:05.859Z,31.3
2017-11-28T07:58:05.650Z,31
2017-11-28T08:00:05.456Z,31
2017-11-28T08:02:05.365Z,31
2017-11-28T08:04:07.652Z,31.1
2017-11-28T08:06:05.384Z,31.1
2017-11-28T08:08:12.687Z,30.8
2017-11-28T08:10:10.506Z,30.8
2017-11-28T08:12:05.210Z,30.8
2017-11-28T08:14:05.955Z,30.8
2017-11-28T08:16:05.725Z,31.1
2017-11-28T08:18:05.716Z,31.1
2017-11-28T08:20:07.992Z,31.1
2017-11-28T08:22:05.741Z,31.1
2017-11-28T08:24:08.023Z,31.1
2017-11-28T08:26:05.789Z,31.1
2017-11-28T08:28:05.498Z,30.9
2017-11-28T08:30:05.409Z,31.1
2017-11-28T08:32:10.210Z,30.9
2017-11-28T08:34:05.977Z,30.8
2017-11-28T08:36:05.223Z,31.1
2017-11-28T08:38:05.975Z,31.1
2017-11-28T08:40:08.281Z,31.1
2017-11-28T08:42:08.578Z,31
2017-11-28T08:44:05.988Z,31
2017-11-28T08:46:05.364Z,31
2017-11-28T08:48:07.653Z,31
2017-11-28T08:50:05.885Z,31
2017-11-28T08:52:08.324Z,31
2017-11-28T08:54:05.351Z,31
2017-11-28T08:56:05.112Z,31
2017-11-28T08:58:15.977Z,31
2017-11-28T09:00:08.233Z,31
2017-11-28T09:02:05.493Z,31
2017-11-28T09:04:05.245Z,31
2017-11-28T09:06:08.547Z,30.8
2017-11-28T09:08:05.286Z,31
2017-11-28T09:10:05.085Z,31
2017-11-28T09:12:05.830Z,31
2017-11-28T09:14:08.144Z,31
2017-11-28T09:16:05.895Z,31
2017-11-28T09:18:05.829Z,31.1
2017-11-28T09:20:05.545Z,31
2017-11-28T09:22:05.294Z,30.8
2017-11-28T09:24:05.034Z,30.8
2017-11-28T09:26:05.856Z,31
2017-11-28T09:28:05.610Z,31
2017-11-28T09:30:05.342Z,31
2017-11-28T09:32:05.018Z,31
2017-11-28T09:34:07.899Z,31
2017-11-28T09:36:05.566Z,31
2017-11-28T09:38:05.810Z,31
2017-11-28T09:40:05.495Z,31
2017-11-28T09:42:05.732Z,31
2017-11-28T09:44:09.263Z,31
2017-11-28T09:46:06.073Z,31
2017-11-28T09:48:05.842Z,31
2017-11-28T09:50:05.546Z,31
2017-11-28T09:52:05.325Z,30.9
2017-11-28T09:54:05.076Z,31
2017-11-28T09:56:05.876Z,31
2017-11-28T09:58:05.620Z,30.9
2017-11-28T10:00:05.343Z,30.9
2017-11-28T10:02:13.782Z,30.9
2017-11-28T10:04:05.096Z,30.9
2017-11-28T10:06:08.511Z,30.9
2017-11-28T10:08:07.729Z,30.9
2017-11-28T10:10:07.989Z,30.9
2017-11-28T10:12:05.287Z,30.9
2017-11-28T10:14:07.887Z,31
2017-11-28T10:16:05.669Z,30.9
2017-11-28T10:18:05.653Z,30.9
2017-11-28T10:20:05.381Z,30.9
2017-11-28T10:22:05.208Z,30.9
2017-11-28T10:24:05.434Z,30.9
2017-11-28T10:26:05.305Z,30.9
2017-11-28T10:28:05.241Z,30.9
2017-11-28T10:30:05.963Z,30.9
2017-11-28T10:32:05.680Z,30.8
2017-11-28T10:34:05.476Z,30.9
2017-11-28T10:36:05.221Z,30.8
2017-11-28T10:38:08.472Z,30.9
2017-11-28T10:40:07.713Z,30.9
2017-11-28T10:42:05.455Z,30.9
2017-11-28T10:44:05.198Z,30.9
2017-11-28T10:46:08.528Z,30.8
2017-11-28T10:48:05.782Z,30.8
2017-11-28T10:50:05.139Z,30.9
2017-11-28T10:52:10.928Z,31.1
2017-11-28T10:54:05.657Z,30.8
2017-11-28T10:56:07.931Z,30.9
2017-11-28T10:58:05.763Z,30.9
2017-11-28T11:00:08.006Z,31
2017-11-28T11:02:05.300Z,31
2017-11-28T11:04:05.085Z,31
2017-11-28T11:06:05.450Z,31
2017-11-28T11:08:05.209Z,31
2017-11-28T11:10:06.004Z,31
2017-11-28T11:12:05.224Z,31
2017-11-28T11:14:08.488Z,31
2017-11-28T11:16:05.276Z,31
2017-11-28T11:18:05.791Z,31
2017-11-28T11:20:05.581Z,31
2017-11-28T11:22:08.005Z,31
2017-11-28T11:24:08.307Z,31
2017-11-28T11:26:05.684Z,31
2017-11-28T11:28:05.463Z,31
2017-11-28T11:30:05.211Z,31
2017-11-28T11:32:05.981Z,31
2017-11-28T11:34:05.748Z,31
2017-11-28T11:36:05.458Z,30.9
2017-11-28T11:38:05.173Z,31
2017-11-28T11:40:05.973Z,31.1
2017-11-28T11:42:05.236Z,31
2017-11-28T11:44:05.978Z,31
2017-11-28T11:46:05.377Z,31
2017-11-28T11:48:05.176Z,31
2017-11-28T11:50:05.207Z,31
2017-11-28T11:52:10.980Z,31
2017-11-28T11:54:10.539Z,31
2017-11-28T11:56:05.342Z,31
2017-11-28T11:58:05.111Z,31
2017-11-28T12:00:05.465Z,30.9
2017-11-28T12:02:05.338Z,31
2017-11-28T12:04:05.240Z,31
2017-11-28T12:06:07.753Z,31
2017-11-28T12:08:05.591Z,31
2017-11-28T12:10:05.393Z,31
2017-11-28T12:12:05.123Z,31
2017-11-28T12:14:07.960Z,31
2017-11-28T12:16:06.095Z,31
2017-11-28T12:18:05.029Z,31
2017-11-28T12:20:05.443Z,31.1
2017-11-28T12:22:05.262Z,31.1
2017-11-28T12:24:06.053Z,31
2017-11-28T12:26:05.334Z,31
2017-11-28T12:28:05.114Z,31
2017-11-28T12:30:05.923Z,31
2017-11-28T12:32:05.921Z,31
2017-11-28T12:34:05.732Z,31
2017-11-28T12:36:05.519Z,31
2017-11-28T12:38:05.503Z,31.1
2017-11-28T12:40:05.372Z,31
2017-11-28T12:42:05.739Z,31
2017-11-28T12:44:05.556Z,31
2017-11-28T12:46:05.303Z,31.1
2017-11-28T12:48:05.019Z,31.2
2017-11-28T12:50:10.351Z,30.8
2017-11-28T12:52:05.083Z,30.7
2017-11-28T12:54:08.369Z,30.9
2017-11-28T12:56:07.600Z,31.1
2017-11-28T12:58:10.465Z,31
2017-11-28T13:00:05.245Z,31
2017-11-28T13:02:11.024Z,31.1
2017-11-28T13:04:05.782Z,30.9
2017-11-28T13:06:07.606Z,31.3
2017-11-28T13:08:05.428Z,31
2017-11-28T13:10:05.773Z,31.2
2017-11-28T13:12:05.531Z,31
2017-11-28T13:14:07.827Z,31.6
2017-11-28T13:16:05.548Z,31.3
2017-11-28T13:18:05.551Z,31.3
2017-11-28T13:20:05.242Z,31.3
2017-11-28T13:22:08.510Z,31.5
2017-11-28T13:24:07.786Z,31.6
2017-11-28T13:26:05.551Z,31.4
2017-11-28T13:28:07.907Z,31.4
2017-11-28T13:30:05.257Z,31.4
2017-11-28T13:32:05.082Z,31.5
2017-11-28T13:34:05.822Z,31.2
2017-11-28T13:36:05.784Z,31
2017-11-28T13:38:08.103Z,31.1
2017-11-28T13:40:05.881Z,31.1
2017-11-28T13:42:05.108Z,31.1
2017-11-28T13:44:05.426Z,31.1
2017-11-28T13:46:05.719Z,31.1
2017-11-28T13:48:05.441Z,31.1
2017-11-28T13:50:05.170Z,31.1
2017-11-28T13:52:05.929Z,31.1
2017-11-28T13:54:08.171Z,31.1
2017-11-28T13:56:05.901Z,31
2017-11-28T13:58:05.714Z,31.1
2017-11-28T14:00:05.480Z,31.1
2017-11-28T14:02:05.216Z,31.2
2017-11-28T14:04:05.961Z,31.1
2017-11-28T14:06:05.686Z,31.1
2017-11-28T14:08:05.437Z,31.1
2017-11-28T14:10:12.728Z,31.1
2017-11-28T14:12:09.028Z,31
2017-11-28T14:14:10.860Z,31
2017-11-28T14:16:05.565Z,30.9
2017-11-28T14:18:07.657Z,31
2017-11-28T14:20:06.620Z,31
2017-11-28T14:22:06.115Z,31
2017-11-28T14:24:05.886Z,31
2017-11-28T14:26:05.146Z,31
2017-11-28T14:28:13.236Z,31
2017-11-28T14:30:06.972Z,31
2017-11-28T14:32:08.263Z,31
2017-11-28T14:34:06.982Z,31
2017-11-28T14:36:07.149Z,31.3
2017-11-28T14:38:07.632Z,31.2
2017-11-28T14:40:05.670Z,31.2
2017-11-28T14:42:05.397Z,31.2
2017-11-28T14:44:05.885Z,31.1
2017-11-28T14:46:17.273Z,31.2
2017-11-28T14:48:05.054Z,31.1
2017-11-28T14:50:05.348Z,31.3
2017-11-28T14:52:15.036Z,31.3
2017-11-28T14:54:10.333Z,31
2017-11-28T14:56:10.141Z,31.1
2017-11-28T14:58:06.369Z,31.1
2017-11-28T15:00:05.834Z,30.9
2017-11-28T15:02:05.768Z,31.2
2017-11-28T15:04:05.562Z,31.2
2017-11-28T15:06:05.577Z,31.2
2017-11-28T15:08:06.102Z,31.4
2017-11-28T15:10:05.088Z,33.4
2017-11-28T15:12:06.119Z,33.2
2017-11-28T15:14:05.309Z,33.4
2017-11-28T15:16:05.118Z,33.8
2017-11-28T15:18:07.781Z,33.9
2017-11-28T15:20:07.255Z,34
2017-11-28T15:22:05.339Z,33.8
2017-11-28T15:24:05.596Z,33.1
2017-11-28T15:26:08.139Z,32.8
2017-11-28T15:28:06.516Z,32.8
2017-11-28T15:30:05.036Z,33
2017-11-28T15:32:07.519Z,32.8
2017-11-28T15:34:05.435Z,32.5
2017-11-28T15:36:05.231Z,32.5
2017-11-28T15:38:07.237Z,32.6
2017-11-28T15:40:05.442Z,32.6
2017-11-28T15:42:05.886Z,32.5
2017-11-28T15:44:15.792Z,32.5
2017-11-28T15:46:10.649Z,32.3
2017-11-28T15:48:05.373Z,32.3
2017-11-28T15:50:08.210Z,31.9
2017-11-28T15:52:06.027Z,31.9
2017-11-28T15:54:05.746Z,31.9
2017-11-28T15:56:05.538Z,31.8
2017-11-28T15:58:07.796Z,31.7
2017-11-28T16:00:15.672Z,31.7
2017-11-28T16:02:15.569Z,31.6
2017-11-28T16:04:05.892Z,31.6
2017-11-28T16:06:13.221Z,31.6
2017-11-28T16:08:09.679Z,31.6
2017-11-28T16:10:08.518Z,31.7
2017-11-28T16:12:05.238Z,31.7
2017-11-28T16:14:08.540Z,31.6
2017-11-28T16:16:05.414Z,31.6
2017-11-28T16:18:05.367Z,31.6
2017-11-28T16:20:05.137Z,31.3
2017-11-28T16:22:05.920Z,31.5
2017-11-28T16:24:05.161Z,31.3
2017-11-28T16:26:05.451Z,31.2
2017-11-28T16:28:07.797Z,31.7
2017-11-28T16:30:05.493Z,31.7
2017-11-28T16:32:05.781Z,31.4
2017-11-28T16:34:05.495Z,31.5
2017-11-28T16:36:05.268Z,31.8
2017-11-28T16:38:06.091Z,32
2017-11-28T16:40:06.048Z,31.5
2017-11-28T16:46:05.046Z,61.6
2017-11-28T16:48:05.809Z,58.9
2017-11-28T16:58:05.222Z,58.1
2017-11-28T17:00:13.582Z,59
2017-11-28T17:02:05.326Z,59
2017-11-28T17:04:05.647Z,58.4
2017-11-28T17:06:07.923Z,58.4
2017-11-28T17:08:08.155Z,58.4
2017-11-28T17:10:08.476Z,58.4
2017-11-28T17:12:07.736Z,58.4
2017-11-28T17:14:08.423Z,55.4
2017-11-28T17:16:05.408Z,55.1
2017-11-28T17:18:05.375Z,54.9
2017-11-28T17:20:05.646Z,56.9
2017-11-28T17:22:05.489Z,55.9
2017-11-28T17:24:05.268Z,54.8
2017-11-28T17:26:05.995Z,54.4
2017-11-28T17:28:05.241Z,53.7
2017-11-28T17:30:05.552Z,53.5
2017-11-28T17:32:12.850Z,53.4
2017-11-28T17:34:05.608Z,53.4
2017-11-28T17:36:05.368Z,53.1
2017-11-28T17:38:05.644Z,52.7
2017-11-28T17:40:07.935Z,52.3
2017-11-28T17:42:05.649Z,52.2
2017-11-28T17:44:05.433Z,52
2017-11-28T17:46:05.236Z,52.9
2017-11-28T17:48:08.076Z,54.6
2017-11-28T17:50:05.844Z,54.6
2017-11-28T17:52:05.571Z,54.9
2017-11-28T17:54:07.838Z,55.7
2017-11-28T17:56:05.063Z,55.7
2017-11-28T17:58:05.831Z,56.1
2017-11-28T18:00:05.619Z,56
2017-11-28T18:02:08.019Z,54.6
2017-11-28T18:04:05.828Z,54.6
2017-11-28T18:06:08.091Z,53.4
2017-11-28T18:08:05.798Z,53.4
2017-11-28T18:10:05.723Z,53.2
2017-11-28T18:12:05.641Z,60
2017-11-28T18:14:07.896Z,61.2
2017-11-28T18:16:05.214Z,61.2
2017-11-28T18:18:05.163Z,61.9
2017-11-28T18:20:08.369Z,60
2017-11-28T18:22:05.680Z,60
2017-11-28T18:24:05.430Z,57.4
2017-11-28T18:26:05.172Z,57.4
2017-11-28T18:28:08.473Z,61.2
2017-11-28T18:30:05.166Z,61.3
2017-11-28T18:32:05.883Z,61.9
2017-11-28T18:34:05.639Z,62.2
2017-11-28T18:36:08.010Z,63
2017-11-28T18:38:05.393Z,63
2017-11-28T18:40:05.149Z,62.9
2017-11-28T18:42:08.175Z,63.6
2017-11-28T18:44:05.454Z,63.6
2017-11-28T18:46:07.728Z,64.3
2017-11-28T18:48:05.628Z,64.3
2017-11-28T18:50:05.397Z,64.7
2017-11-28T18:52:10.192Z,65.1
2017-11-28T18:54:05.954Z,65
2017-11-28T18:56:06.758Z,62.8
2017-11-28T18:58:10.179Z,61.3
2017-11-28T19:00:05.948Z,61.3
2017-11-28T19:02:08.228Z,60.4
2017-11-28T19:04:13.597Z,60.5
2017-11-28T19:06:07.916Z,60.2
2017-11-28T19:08:05.640Z,60.2
2017-11-28T19:10:05.990Z,60.1
2017-11-28T19:12:05.320Z,59.6
2017-11-28T19:14:07.639Z,59.6
2017-11-28T19:16:05.371Z,59.5
2017-11-28T19:18:05.897Z,58.8
2017-11-28T19:20:05.660Z,58.6
2017-11-28T19:22:05.484Z,58
2017-11-28T19:24:05.212Z,58
2017-11-28T19:26:05.936Z,58
2017-11-28T19:28:05.452Z,57.8
2017-11-28T19:30:05.195Z,57.6
2017-11-28T19:32:05.124Z,57.5
2017-11-28T19:34:06.136Z,57.3
2017-11-28T19:36:05.404Z,57.2
2017-11-28T19:38:05.179Z,57
2017-11-28T19:40:05.950Z,57.1
2017-11-28T19:42:10.977Z,57.1
2017-11-28T19:44:05.711Z,57.1
2017-11-28T19:46:05.447Z,57
2017-11-28T19:48:05.217Z,56.9
2017-11-28T19:50:08.472Z,56.5
2017-11-28T19:52:05.468Z,56.7
2017-11-28T19:54:06.753Z,57
2017-11-28T19:56:06.020Z,57.3
2017-11-28T19:58:05.831Z,57.7
2017-11-28T20:00:06.258Z,57.7
2017-11-28T20:02:06.039Z,58.2
2017-11-28T20:04:05.872Z,58.3
2017-11-28T20:06:05.694Z,58.8
2017-11-28T20:08:05.431Z,58.6
2017-11-28T20:10:05.769Z,58.5
2017-11-28T20:12:05.756Z,58.9
2017-11-28T20:14:05.520Z,59
2017-11-28T20:16:05.233Z,59.2
2017-11-28T20:18:10.773Z,59.2
2017-11-28T20:20:05.499Z,59.2
2017-11-28T20:22:05.895Z,60
2017-11-28T20:24:05.612Z,59.8
2017-11-28T20:26:05.465Z,60
2017-11-28T20:28:07.770Z,60.1
2017-11-28T20:30:05.506Z,60.1
2017-11-28T20:32:05.282Z,60.2
2017-11-28T20:34:05.451Z,60.3
2017-11-28T20:36:05.323Z,60.3
2017-11-28T20:38:05.032Z,60.3
2017-11-28T20:40:05.847Z,60.4
2017-11-28T20:42:05.644Z,60.4
2017-11-28T20:44:10.672Z,60.5
2017-11-28T20:46:05.764Z,60.5
2017-11-28T20:48:05.832Z,60.6
2017-11-28T20:50:05.541Z,60.6
2017-11-28T20:52:07.818Z,60.6
2017-11-28T20:54:06.731Z,60.6
2017-11-28T20:56:08.439Z,60.6
2017-11-28T20:58:05.234Z,60.6
2017-11-28T21:00:06.235Z,60.6
2017-11-28T21:02:08.487Z,60.6
2017-11-28T21:04:07.800Z,60.6
2017-11-28T21:06:05.529Z,60.6
2017-11-28T21:08:10.566Z,60.6
2017-11-28T21:10:12.945Z,60.6
2017-11-28T21:12:08.180Z,60.6
2017-11-28T21:14:05.097Z,60.6
2017-11-28T21:16:06.038Z,60.6
2017-11-28T21:18:05.981Z,60.6
2017-11-28T21:20:10.770Z,60.6
2017-11-28T21:22:08.584Z,60.6
2017-11-28T21:24:08.081Z,60.7
2017-11-28T21:26:05.938Z,60.7
2017-11-28T21:28:06.675Z,60.7
2017-11-28T21:30:05.866Z,60.7
2017-11-28T21:32:08.153Z,60.6
2017-11-28T21:34:05.905Z,60.7
2017-11-28T21:36:05.859Z,60.7
2017-11-28T21:38:05.625Z,60.7
2017-11-28T21:40:05.434Z,60.7
2017-11-28T21:42:05.456Z,60.7
2017-11-28T21:44:05.698Z,60.7
2017-11-28T21:46:05.617Z,60.8
2017-11-28T21:48:05.377Z,60.7
2017-11-28T21:50:05.118Z,60.7
2017-11-28T21:52:06.964Z,60.8
2017-11-28T21:54:05.714Z,60.8
2017-11-28T21:56:05.433Z,60.8
2017-11-28T21:58:05.164Z,60.8
2017-11-28T22:00:05.127Z,60.8
2017-11-28T22:02:08.425Z,60.6
2017-11-28T22:04:05.913Z,60.6
2017-11-28T22:06:08.108Z,60.4
2017-11-28T22:08:05.055Z,60.4
2017-11-28T22:10:08.385Z,60.3
2017-11-28T22:12:12.753Z,60.3
2017-11-28T22:14:05.227Z,60.3
2017-11-28T22:16:05.957Z,60.3
2017-11-28T22:18:10.955Z,60.1
2017-11-28T22:20:05.681Z,60.1
2017-11-28T22:22:07.952Z,60.1
2017-11-28T22:24:05.645Z,60.1
2017-11-28T22:26:05.364Z,60.1
2017-11-28T22:28:08.187Z,60
2017-11-28T22:30:08.514Z,60
2017-11-28T22:32:05.618Z,60
2017-11-28T22:34:05.373Z,60
2017-11-28T22:36:07.585Z,60
2017-11-28T22:38:05.405Z,60
2017-11-28T22:40:05.244Z,60
2017-11-28T22:42:05.933Z,60
2017-11-28T22:44:05.641Z,59.9
2017-11-28T22:46:10.504Z,59.4
2017-11-28T22:48:12.824Z,59.3
2017-11-28T22:50:05.588Z,59.3
2017-11-28T22:52:05.333Z,59.2
2017-11-28T22:54:05.138Z,59
2017-11-28T22:56:08.381Z,58.7
2017-11-28T22:58:05.190Z,58.7
2017-11-28T23:00:05.579Z,58.7
2017-11-28T23:02:05.304Z,58.7
2017-11-28T23:04:05.556Z,58.6
2017-11-28T23:06:07.872Z,58.5
2017-11-28T23:08:05.742Z,58.7
2017-11-28T23:10:05.647Z,58.4
2017-11-28T23:12:05.407Z,58.4
2017-11-28T23:14:05.844Z,58.2
2017-11-28T23:16:08.213Z,58.1
2017-11-28T23:18:05.261Z,58.1
2017-11-28T23:20:05.231Z,57.8
2017-11-28T23:22:06.240Z,58
2017-11-28T23:24:06.484Z,57.9
2017-11-28T23:26:05.484Z,57.7
2017-11-28T23:28:05.248Z,57.8
2017-11-28T23:30:08.502Z,57.5
2017-11-28T23:32:05.916Z,57.5
2017-11-28T23:34:05.141Z,58.2
2017-11-28T23:36:05.844Z,58
2017-11-28T23:38:05.167Z,58
2017-11-28T23:40:05.476Z,58
2017-11-28T23:42:05.271Z,57.7
2017-11-28T23:44:08.554Z,57.1
2017-11-28T23:46:07.880Z,57.7
2017-11-28T23:48:08.137Z,57.5
2017-11-28T23:50:05.063Z,57.5
2017-11-28T23:52:06.049Z,57.5
2017-11-28T23:54:05.758Z,57.5
2017-11-28T23:56:33.322Z,57.5
2017-11-28T23:58:05.161Z,57.5
